createdAt,value
2023-03-15T00:01:23.181Z,3.20
2023-03-15T00:03:50.979Z,3.75
2023-03-15T00:06:18.669Z,4.15
2023-03-15T00:08:47.452Z,3.47
2023-03-15T00:11:15.596Z,2.80
2023-03-15T00:13:43.680Z,4.60
2023-03-15T00:16:18.287Z,3.05
2023-03-15T00:18:47.066Z,4.03
2023-03-15T00:21:14.866Z,3.05
2023-03-15T00:23:42.440Z,3.33
2023-03-15T00:26:09.922Z,3.47
2023-03-15T00:28:37.760Z,3.00
2023-03-15T00:31:07.453Z,3.85
2023-03-15T00:33:36.822Z,4.50
2023-03-15T00:36:06.215Z,4.45
2023-03-15T00:38:34.207Z,2.70
2023-03-15T00:41:05.989Z,3.42
2023-03-15T00:43:33.725Z,2.45
2023-03-15T00:46:01.487Z,3.83
2023-03-15T00:48:29.102Z,3.00
2023-03-15T00:51:05.929Z,2.90
2023-03-15T00:53:34.216Z,2.50
2023-03-15T00:56:05.779Z,3.35
2023-03-15T00:58:33.269Z,3.17
2023-03-15T01:01:01.464Z,2.60
2023-03-15T01:03:29.229Z,4.20
2023-03-15T01:05:56.669Z,2.35
2023-03-15T01:08:25.612Z,2.03
2023-03-15T01:10:53.173Z,2.95
2023-03-15T01:13:20.661Z,2.75
2023-03-15T01:15:48.510Z,2.60
2023-03-15T01:18:16.044Z,2.65
2023-03-15T01:20:44.947Z,2.65
2023-03-15T01:23:12.476Z,2.55
2023-03-15T01:25:41.487Z,2.15
2023-03-15T01:28:09.053Z,4.07
2023-03-15T01:30:36.567Z,2.25
2023-03-15T01:33:04.270Z,3.13
2023-03-15T01:35:31.752Z,4.03
2023-03-15T01:37:59.266Z,3.40
2023-03-15T01:40:26.730Z,3.88
2023-03-15T01:43:15.192Z,4.00
2023-03-15T01:46:04.030Z,3.33
2023-03-15T01:48:36.736Z,2.95
2023-03-15T01:51:11.116Z,2.85
2023-03-15T01:53:40.450Z,2.77
2023-03-15T01:56:09.277Z,3.28
2023-03-15T01:58:40.888Z,3.35
2023-03-15T02:01:10.735Z,2.45
2023-03-15T02:03:46.416Z,3.10
2023-03-15T02:06:18.167Z,2.47
2023-03-15T02:08:50.446Z,3.47
2023-03-15T02:11:21.333Z,2.28
2023-03-15T02:13:51.075Z,1.90
2023-03-15T02:16:19.767Z,2.25
2023-03-15T02:18:47.342Z,2.60
2023-03-15T02:21:30.026Z,2.92
2023-03-15T02:24:12.092Z,1.67
2023-03-15T02:26:43.696Z,1.58
2023-03-15T02:29:13.034Z,2.30
2023-03-15T02:31:41.107Z,2.13
2023-03-15T02:34:09.469Z,2.60
2023-03-15T02:36:37.870Z,2.72
2023-03-15T02:39:15.788Z,1.38
2023-03-15T02:41:45.968Z,2.28
2023-03-15T02:44:17.298Z,1.80
2023-03-15T02:46:46.977Z,1.20
2023-03-15T02:49:16.946Z,1.60
2023-03-15T02:51:44.470Z,2.10
2023-03-15T02:54:11.999Z,1.75
2023-03-15T02:56:39.444Z,2.07
2023-03-15T02:59:07.001Z,1.48
2023-03-15T03:01:37.142Z,1.50
2023-03-15T03:04:05.385Z,1.35
2023-03-15T03:06:32.918Z,2.00
2023-03-15T03:09:03.209Z,1.98
2023-03-15T03:11:31.267Z,2.10
2023-03-15T03:13:58.969Z,1.77
2023-03-15T03:16:26.691Z,1.77
2023-03-15T03:18:55.604Z,1.80
2023-03-15T03:21:23.129Z,1.87
2023-03-15T03:23:50.634Z,1.90
2023-03-15T03:26:19.987Z,1.35
2023-03-15T03:28:49.573Z,2.00
2023-03-15T03:31:19.606Z,1.77
2023-03-15T03:33:47.459Z,1.00
2023-03-15T03:36:16.570Z,0.98
2023-03-15T03:38:46.209Z,0.75
2023-03-15T03:41:15.041Z,0.50
2023-03-15T03:43:42.624Z,0.75
2023-03-15T03:46:10.337Z,0.63
2023-03-15T03:48:37.976Z,0.70
2023-03-15T03:51:06.117Z,0.93
2023-03-15T03:53:34.969Z,0.63
2023-03-15T03:56:04.975Z,0.60
2023-03-15T03:58:32.698Z,0.70
2023-03-15T04:01:00.369Z,0.57
2023-03-15T04:03:28.126Z,1.10
2023-03-15T04:05:55.865Z,0.50
2023-03-15T04:08:24.613Z,0.65
2023-03-15T04:10:54.115Z,0.83
2023-03-15T04:13:22.929Z,0.50
2023-03-15T04:15:51.267Z,0.90
2023-03-15T04:18:19.007Z,0.50
2023-03-15T04:20:48.438Z,1.33
2023-03-15T04:23:16.660Z,0.73
2023-03-15T04:25:44.147Z,1.00
2023-03-15T04:28:12.964Z,0.70
2023-03-15T04:30:42.690Z,0.80
2023-03-15T04:33:10.921Z,0.75
2023-03-15T04:35:39.754Z,1.07
2023-03-15T04:38:07.453Z,0.93
2023-03-15T04:40:35.897Z,1.23
2023-03-15T04:43:05.651Z,1.48
2023-03-15T04:45:34.706Z,1.63
2023-03-15T04:48:03.152Z,2.10
2023-03-15T04:50:31.236Z,1.45
2023-03-15T04:52:59.525Z,1.10
2023-03-15T04:55:27.208Z,1.25
2023-03-15T04:57:55.269Z,1.10
2023-03-15T05:00:23.240Z,1.50
2023-03-15T05:02:54.878Z,0.90
2023-03-15T05:05:23.741Z,1.40
2023-03-15T05:07:51.647Z,1.83
2023-03-15T05:10:19.528Z,1.30
2023-03-15T05:12:47.421Z,2.03
2023-03-15T05:15:14.977Z,1.85
2023-03-15T05:17:42.607Z,1.05
2023-03-15T05:20:13.430Z,1.25
2023-03-15T05:22:41.391Z,0.93
2023-03-15T05:25:10.991Z,1.10
2023-03-15T05:27:39.163Z,1.63
2023-03-15T05:30:08.591Z,1.23
2023-03-15T05:32:39.364Z,1.15
2023-03-15T05:35:08.501Z,1.30
2023-03-15T05:37:37.346Z,1.90
2023-03-15T05:40:08.122Z,1.15
2023-03-15T05:42:35.886Z,1.23
2023-03-15T05:45:03.391Z,0.95
2023-03-15T05:47:33.122Z,1.60
2023-03-15T05:50:01.144Z,0.93
2023-03-15T05:52:28.797Z,0.80
2023-03-15T05:54:57.898Z,1.00
2023-03-15T05:57:25.550Z,1.50
2023-03-15T05:59:55.021Z,1.30
2023-03-15T06:02:22.683Z,1.33
2023-03-15T06:04:50.212Z,1.10
2023-03-15T06:07:17.764Z,0.60
2023-03-15T06:09:45.563Z,0.95
2023-03-15T06:12:14.823Z,0.98
2023-03-15T06:14:42.544Z,1.25
2023-03-15T06:17:10.281Z,1.25
2023-03-15T06:19:38.134Z,1.10
2023-03-15T06:22:05.819Z,0.90
2023-03-15T06:24:33.474Z,0.88
2023-03-15T06:27:00.962Z,0.93
2023-03-15T06:29:29.743Z,0.82
2023-03-15T06:31:57.201Z,1.23
2023-03-15T06:34:24.664Z,0.80
2023-03-15T06:36:52.599Z,0.77
2023-03-15T06:39:20.292Z,0.52
2023-03-15T06:41:47.772Z,0.20
2023-03-15T06:44:15.274Z,0.40
2023-03-15T06:46:44.080Z,0.40
2023-03-15T06:49:11.553Z,0.22
2023-03-15T06:51:39.244Z,0.30
2023-03-15T06:54:06.829Z,0.40
2023-03-15T06:56:37.137Z,0.30
2023-03-15T06:59:04.619Z,0.30
2023-03-15T07:01:32.575Z,0.20
2023-03-15T07:04:02.147Z,0.30
2023-03-15T07:06:29.725Z,0.13
2023-03-15T07:08:57.227Z,0.30
2023-03-15T07:11:24.849Z,0.20
2023-03-15T07:13:52.295Z,0.60
2023-03-15T07:16:19.863Z,0.40
2023-03-15T07:18:47.370Z,0.57
2023-03-15T07:21:16.140Z,0.40
2023-03-15T07:23:43.848Z,0.40
2023-03-15T07:26:11.293Z,0.30
2023-03-15T07:28:38.780Z,0.30
2023-03-15T07:31:07.129Z,0.30
2023-03-15T07:33:36.339Z,0.30
2023-03-15T07:36:05.105Z,0.35
2023-03-15T07:38:35.119Z,0.30
2023-03-15T07:41:03.382Z,0.50
2023-03-15T07:43:31.120Z,0.47
2023-03-15T07:45:58.669Z,0.40
2023-03-15T07:48:26.268Z,0.52
2023-03-15T07:50:53.705Z,0.57
2023-03-15T07:53:21.377Z,0.90
2023-03-15T07:55:50.491Z,0.80
2023-03-15T07:58:20.221Z,0.85
2023-03-15T08:00:48.176Z,0.90
2023-03-15T08:03:15.651Z,0.70
2023-03-15T08:05:43.095Z,0.80
2023-03-15T08:08:10.529Z,0.80
2023-03-15T08:10:37.988Z,0.90
2023-03-15T08:13:06.758Z,0.75
2023-03-15T08:15:34.246Z,0.90
2023-03-15T08:18:01.828Z,0.63
2023-03-15T08:20:30.004Z,0.77
2023-03-15T08:22:57.706Z,0.63
2023-03-15T08:25:25.722Z,0.80
2023-03-15T08:27:53.626Z,0.57
2023-03-15T08:30:22.802Z,0.90
2023-03-15T08:32:52.371Z,0.40
2023-03-15T08:35:22.721Z,0.75
2023-03-15T08:37:52.385Z,0.68
2023-03-15T08:40:24.773Z,0.90
2023-03-15T08:42:52.866Z,0.85
2023-03-15T08:45:23.894Z,0.85
2023-03-15T08:47:51.550Z,0.70
2023-03-15T08:50:21.736Z,0.57
2023-03-15T08:52:49.470Z,0.80
2023-03-15T08:55:17.696Z,0.60
2023-03-15T08:57:45.378Z,0.50
2023-03-15T09:00:17.852Z,0.60
2023-03-15T09:02:48.530Z,0.40
2023-03-15T09:05:16.780Z,0.52
2023-03-15T09:07:44.390Z,0.30
2023-03-15T09:10:14.915Z,0.30
2023-03-15T09:12:42.493Z,0.50
2023-03-15T09:15:11.772Z,0.50
2023-03-15T09:17:39.369Z,0.40
2023-03-15T09:20:16.074Z,0.60
2023-03-15T09:22:44.626Z,0.40
2023-03-15T09:25:12.089Z,0.70
2023-03-15T09:27:39.561Z,0.57
2023-03-15T09:30:08.088Z,0.50
2023-03-15T09:32:36.773Z,0.60
2023-03-15T09:35:05.257Z,0.73
2023-03-15T09:37:36.295Z,0.47
2023-03-15T09:40:04.676Z,0.70
2023-03-15T09:42:42.953Z,1.08
2023-03-15T09:45:19.265Z,0.95
2023-03-15T09:47:53.562Z,0.82
2023-03-15T09:50:27.059Z,0.88
2023-03-15T09:53:01.677Z,1.15
2023-03-15T09:55:30.267Z,1.13
2023-03-15T09:58:00.974Z,1.20
2023-03-15T10:00:35.189Z,0.68
2023-03-15T10:03:07.083Z,1.35
2023-03-15T10:05:41.618Z,0.45
2023-03-15T10:08:15.625Z,0.50
2023-03-15T10:10:51.053Z,0.68
2023-03-15T10:13:27.033Z,0.70
2023-03-15T10:16:06.123Z,0.98
2023-03-15T10:18:43.803Z,0.60
2023-03-15T10:21:16.111Z,0.70
2023-03-15T10:23:49.868Z,0.60
2023-03-15T10:26:22.055Z,0.77
2023-03-15T10:28:50.101Z,0.50
2023-03-15T10:31:32.880Z,0.68
2023-03-15T10:34:11.314Z,0.80
2023-03-15T10:36:38.784Z,1.02
2023-03-15T10:39:12.079Z,0.70
2023-03-15T10:41:42.106Z,0.68
2023-03-15T10:44:14.569Z,0.73
2023-03-15T10:46:42.209Z,0.65
2023-03-15T10:49:12.956Z,0.60
2023-03-15T10:51:43.492Z,0.80
2023-03-15T10:54:18.616Z,0.88
2023-03-15T10:56:49.392Z,0.90
2023-03-15T10:59:19.407Z,0.55
2023-03-15T11:01:49.515Z,0.70
2023-03-15T11:04:20.049Z,0.68
2023-03-15T11:06:50.186Z,0.80
2023-03-15T11:09:22.141Z,0.63
2023-03-15T11:11:57.986Z,0.70
2023-03-15T11:14:25.560Z,0.60
2023-03-15T11:16:55.735Z,0.55
2023-03-15T11:19:27.610Z,0.73
2023-03-15T11:21:57.117Z,0.70
2023-03-15T11:24:28.754Z,0.70
2023-03-15T11:27:01.545Z,0.80
2023-03-15T11:29:32.488Z,0.90
2023-03-15T11:32:02.242Z,0.60
2023-03-15T11:34:39.338Z,0.70
2023-03-15T11:37:15.725Z,0.63
2023-03-15T11:39:58.853Z,1.02
2023-03-15T11:42:34.864Z,1.00
2023-03-15T11:45:05.755Z,0.77
2023-03-15T11:47:43.641Z,0.80
2023-03-15T11:50:15.126Z,0.75
2023-03-15T11:52:43.100Z,0.75
2023-03-15T11:55:19.264Z,0.93
2023-03-15T11:57:48.043Z,1.13
2023-03-15T12:00:45.274Z,0.98
2023-03-15T12:03:34.196Z,1.00
2023-03-15T12:06:14.403Z,0.95
2023-03-15T12:08:45.662Z,1.02
2023-03-15T12:11:35.010Z,1.17
2023-03-15T12:14:20.919Z,0.73
2023-03-15T12:16:48.623Z,0.98
2023-03-15T12:19:18.863Z,0.70
2023-03-15T12:21:51.179Z,1.02
2023-03-15T12:24:24.445Z,0.50
2023-03-15T12:27:01.544Z,0.60
2023-03-15T12:29:32.336Z,0.63
2023-03-15T12:32:08.780Z,0.80
2023-03-15T12:34:44.507Z,0.60
2023-03-15T12:37:17.872Z,0.90
2023-03-15T12:39:48.622Z,0.70
2023-03-15T12:42:49.456Z,0.65
2023-03-15T12:45:38.761Z,0.90
2023-03-15T12:48:26.046Z,0.80
2023-03-15T12:51:06.242Z,1.00
2023-03-15T12:53:48.839Z,1.10
2023-03-15T12:56:50.531Z,1.15
2023-03-15T12:59:28.157Z,1.17
2023-03-15T13:01:57.923Z,0.90
2023-03-15T13:04:28.074Z,0.70
2023-03-15T13:07:05.067Z,0.80
2023-03-15T13:10:02.325Z,0.77
2023-03-15T13:12:37.037Z,1.00
2023-03-15T13:15:10.342Z,0.80
2023-03-15T13:17:47.409Z,0.70
2023-03-15T13:20:30.792Z,0.70
2023-03-15T13:23:07.522Z,0.60
2023-03-15T13:25:41.663Z,0.70
2023-03-15T13:28:19.775Z,0.40
2023-03-15T13:30:49.042Z,0.60
2023-03-15T13:33:24.631Z,0.45
2023-03-15T13:35:58.149Z,0.50
2023-03-15T13:38:31.712Z,0.60
2023-03-15T13:41:01.746Z,0.70
2023-03-15T13:43:32.508Z,0.50
2023-03-15T13:46:00.773Z,0.47
2023-03-15T13:48:31.932Z,0.60
2023-03-15T13:51:05.367Z,0.57
2023-03-15T13:53:48.676Z,0.43
2023-03-15T13:56:19.359Z,0.40
2023-03-15T13:58:47.496Z,0.60
2023-03-15T14:01:16.077Z,0.40
2023-03-15T14:03:49.930Z,0.70
2023-03-15T14:06:24.607Z,0.35
2023-03-15T14:08:55.636Z,0.47
2023-03-15T14:11:37.022Z,0.80
2023-03-15T14:14:22.969Z,0.60
2023-03-15T14:17:04.194Z,0.60
2023-03-15T14:19:36.677Z,0.60
2023-03-15T14:22:13.524Z,0.70
2023-03-15T14:24:42.882Z,0.50
2023-03-15T14:27:16.796Z,0.60
2023-03-15T14:29:48.473Z,0.40
2023-03-15T14:32:25.437Z,0.53
2023-03-15T14:35:01.245Z,0.70
2023-03-15T14:37:32.458Z,0.50
2023-03-15T14:40:20.042Z,0.70
2023-03-15T14:42:48.441Z,0.70
2023-03-15T14:45:17.490Z,0.70
2023-03-15T14:47:57.714Z,0.70
2023-03-15T14:50:29.174Z,0.63
2023-03-15T14:52:58.971Z,0.73
2023-03-15T14:55:33.338Z,0.70
2023-03-15T14:58:00.914Z,0.73
2023-03-15T15:00:28.453Z,0.80
2023-03-15T15:02:57.876Z,0.68
2023-03-15T15:05:28.799Z,0.90
2023-03-15T15:08:03.081Z,0.85
2023-03-15T15:10:31.578Z,0.80
2023-03-15T15:13:06.044Z,0.90
2023-03-15T15:15:43.926Z,0.80
2023-03-15T15:18:19.323Z,0.70
2023-03-15T15:20:50.479Z,0.70
2023-03-15T15:23:20.900Z,0.90
2023-03-15T15:25:49.354Z,0.57
2023-03-15T15:28:33.111Z,0.80
2023-03-15T15:31:01.974Z,0.80
2023-03-15T15:33:29.419Z,0.70
2023-03-15T15:35:58.777Z,0.77
2023-03-15T15:38:32.088Z,0.90
2023-03-15T15:40:59.669Z,0.90
2023-03-15T15:43:27.151Z,0.80
2023-03-15T15:45:54.937Z,0.75
2023-03-15T15:48:22.847Z,0.90
2023-03-15T15:50:50.327Z,1.00
2023-03-15T15:53:19.338Z,0.70
2023-03-15T15:55:46.927Z,0.70
2023-03-15T15:58:16.646Z,0.70
2023-03-15T16:00:44.078Z,0.97
2023-03-15T16:03:14.858Z,0.52
2023-03-15T16:05:42.738Z,0.68
2023-03-15T16:08:17.461Z,0.70
2023-03-15T16:10:46.286Z,0.63
2023-03-15T16:13:13.759Z,1.03
2023-03-15T16:15:41.227Z,0.80
2023-03-15T16:18:10.793Z,1.10
2023-03-15T16:20:38.759Z,1.23
2023-03-15T16:23:06.529Z,0.68
2023-03-15T16:25:36.873Z,0.63
2023-03-15T16:28:07.783Z,1.00
2023-03-15T16:30:35.429Z,0.70
2023-03-15T16:33:02.888Z,0.88
2023-03-15T16:35:33.824Z,0.85
2023-03-15T16:38:01.933Z,1.00
2023-03-15T16:40:32.741Z,0.98
2023-03-15T16:43:01.086Z,0.90
2023-03-15T16:45:29.880Z,1.00
2023-03-15T16:47:57.366Z,1.00
2023-03-15T16:50:25.033Z,0.90
2023-03-15T16:52:55.726Z,0.80
2023-03-15T16:55:26.013Z,0.90
2023-03-15T16:57:53.876Z,0.63
2023-03-15T17:00:24.510Z,1.20
2023-03-15T17:02:54.210Z,1.20
2023-03-15T17:05:24.562Z,1.00
2023-03-15T17:07:54.186Z,1.00
2023-03-15T17:10:24.046Z,1.08
2023-03-15T17:12:52.239Z,1.00
2023-03-15T17:15:21.811Z,1.30
2023-03-15T17:17:49.719Z,4.97
2023-03-15T17:20:21.662Z,6.13
2023-03-15T17:22:50.520Z,4.20
2023-03-15T17:25:18.506Z,2.60
2023-03-15T17:27:48.218Z,1.50
2023-03-15T17:30:17.686Z,1.27
2023-03-15T17:32:45.797Z,1.15
2023-03-15T17:35:14.698Z,0.90
2023-03-15T17:37:45.613Z,1.80
2023-03-15T17:40:24.796Z,1.10
2023-03-15T17:42:53.753Z,1.08
2023-03-15T17:45:26.130Z,0.90
2023-03-15T17:47:55.156Z,1.10
2023-03-15T17:50:23.980Z,0.88
2023-03-15T17:52:55.986Z,0.95
2023-03-15T17:55:25.679Z,1.02
2023-03-15T17:57:55.667Z,1.00
2023-03-15T18:00:24.750Z,0.65
2023-03-15T18:02:56.018Z,0.85
2023-03-15T18:05:31.053Z,0.95
2023-03-15T18:08:00.546Z,1.17
2023-03-15T18:10:34.300Z,1.00
2023-03-15T18:13:02.620Z,1.00
2023-03-15T18:15:30.167Z,0.90
2023-03-15T18:17:57.623Z,1.50
2023-03-15T18:20:25.821Z,1.15
2023-03-15T18:22:53.279Z,1.48
2023-03-15T18:25:25.063Z,1.23
2023-03-15T18:27:52.653Z,1.55
2023-03-15T18:30:22.163Z,1.42
2023-03-15T18:32:51.097Z,1.73
2023-03-15T18:35:20.945Z,2.50
2023-03-15T18:37:48.780Z,5.50
2023-03-15T18:40:19.836Z,2.38
2023-03-15T18:42:49.759Z,1.35
2023-03-15T18:45:20.404Z,1.40
2023-03-15T18:47:48.051Z,1.38
2023-03-15T18:50:16.798Z,1.38
2023-03-15T18:52:44.578Z,1.40
2023-03-15T18:55:13.396Z,1.13
2023-03-15T18:57:42.929Z,1.35
2023-03-15T19:00:14.167Z,1.23
2023-03-15T19:02:42.339Z,1.33
2023-03-15T19:05:11.731Z,1.52
2023-03-15T19:07:39.639Z,1.80
2023-03-15T19:10:09.828Z,1.60
2023-03-15T19:12:37.775Z,2.05
2023-03-15T19:15:06.632Z,2.10
2023-03-15T19:17:35.611Z,1.85
2023-03-15T19:20:03.970Z,2.13
2023-03-15T19:22:31.686Z,2.08
2023-03-15T19:24:59.213Z,2.30
2023-03-15T19:27:27.082Z,2.58
2023-03-15T19:29:54.790Z,2.50
2023-03-15T19:32:22.921Z,1.55
2023-03-15T19:34:52.027Z,2.40
2023-03-15T19:37:19.688Z,2.22
2023-03-15T19:39:47.456Z,2.50
2023-03-15T19:42:17.227Z,2.53
2023-03-15T19:44:47.261Z,2.08
2023-03-15T19:47:14.982Z,2.40
2023-03-15T19:49:45.793Z,2.40
2023-03-15T19:52:15.927Z,2.10
2023-03-15T19:54:43.641Z,1.92
2023-03-15T19:57:11.862Z,1.65
2023-03-15T19:59:44.296Z,1.92
2023-03-15T20:02:12.493Z,2.00
2023-03-15T20:04:42.783Z,1.85
2023-03-15T20:07:10.970Z,1.63
2023-03-15T20:09:41.418Z,1.88
2023-03-15T20:12:11.158Z,1.92
2023-03-15T20:14:39.404Z,1.98
2023-03-15T20:17:07.364Z,1.80
2023-03-15T20:19:37.956Z,2.13
2023-03-15T20:22:05.657Z,2.03
2023-03-15T20:24:33.373Z,2.35
2023-03-15T20:27:02.216Z,1.73
2023-03-15T20:29:31.582Z,1.90
2023-03-15T20:31:59.230Z,1.92
2023-03-15T20:34:26.856Z,1.98
2023-03-15T20:36:54.468Z,2.10
2023-03-15T20:39:24.212Z,2.00
2023-03-15T20:41:51.805Z,1.75
2023-03-15T20:44:26.388Z,1.70
2023-03-15T20:46:56.666Z,1.35
2023-03-15T20:49:24.398Z,2.00
2023-03-15T20:51:54.885Z,1.60
2023-03-15T20:54:22.688Z,1.60
2023-03-15T20:56:50.400Z,1.40
2023-03-15T20:59:20.626Z,1.60
2023-03-15T21:01:51.002Z,1.60
2023-03-15T21:04:21.848Z,1.63
2023-03-15T21:06:49.703Z,1.65
2023-03-15T21:09:17.567Z,1.90
2023-03-15T21:11:45.004Z,1.80
2023-03-15T21:14:12.660Z,1.63
2023-03-15T21:16:40.227Z,1.40
2023-03-15T21:19:09.048Z,1.75
2023-03-15T21:21:36.569Z,1.98
2023-03-15T21:24:06.139Z,1.52
2023-03-15T21:26:33.681Z,1.40
2023-03-15T21:29:01.216Z,3.45
2023-03-15T21:31:28.754Z,2.40
2023-03-15T21:33:56.570Z,1.70
2023-03-15T21:36:25.433Z,1.58
2023-03-15T21:38:52.904Z,1.67
2023-03-15T21:41:20.475Z,1.95
2023-03-15T21:43:48.000Z,1.75
2023-03-15T21:46:16.135Z,1.60
2023-03-15T21:48:43.711Z,1.20
2023-03-15T21:51:14.750Z,1.50
2023-03-15T21:53:46.128Z,1.75
2023-03-15T21:56:14.593Z,1.30
2023-03-15T21:58:42.727Z,1.37
2023-03-15T22:01:10.952Z,1.38
2023-03-15T22:03:39.298Z,1.52
2023-03-15T22:06:07.547Z,1.35
2023-03-15T22:08:35.161Z,1.73
2023-03-15T22:11:04.507Z,1.97
2023-03-15T22:13:32.110Z,1.83
2023-03-15T22:15:59.655Z,1.50
2023-03-15T22:18:28.508Z,1.75
2023-03-15T22:20:57.277Z,2.00
2023-03-15T22:23:25.312Z,1.50
2023-03-15T22:25:54.347Z,1.60
2023-03-15T22:28:24.930Z,1.90
2023-03-15T22:30:53.590Z,1.85
2023-03-15T22:33:22.539Z,2.00
2023-03-15T22:35:55.604Z,1.88
2023-03-15T22:38:24.162Z,1.25
2023-03-15T22:40:51.644Z,1.75
2023-03-15T22:43:19.819Z,1.80
2023-03-15T22:45:48.636Z,1.40
2023-03-15T22:48:16.131Z,1.67
2023-03-15T22:50:43.657Z,1.67
2023-03-15T22:53:11.122Z,1.48
2023-03-15T22:55:38.580Z,1.67
2023-03-15T22:58:06.026Z,1.50
2023-03-15T23:00:33.798Z,1.50
2023-03-15T23:03:02.602Z,1.52
2023-03-15T23:05:30.566Z,1.55
2023-03-15T23:07:58.021Z,1.58
2023-03-15T23:10:25.881Z,1.50
2023-03-15T23:12:53.476Z,1.70
2023-03-15T23:15:21.021Z,1.83
2023-03-15T23:17:48.782Z,2.10
2023-03-15T23:20:19.510Z,1.88
2023-03-15T23:22:48.052Z,1.33
2023-03-15T23:25:17.134Z,1.48
2023-03-15T23:27:44.684Z,1.60
2023-03-15T23:30:13.838Z,1.88
2023-03-15T23:32:41.884Z,1.35
2023-03-15T23:35:12.372Z,1.30
2023-03-15T23:37:41.567Z,1.37
2023-03-15T23:40:13.893Z,1.55
2023-03-15T23:42:41.919Z,1.73
2023-03-15T23:45:10.371Z,0.95
2023-03-15T23:47:37.880Z,1.45
2023-03-15T23:50:05.853Z,1.53
2023-03-15T23:52:33.299Z,1.70
2023-03-15T23:55:02.146Z,1.42
2023-03-15T23:57:29.722Z,1.40
2023-03-15T23:59:57.313Z,1.95
